sensor_id;sensor_type;location;lat;lon;timestamp;temperature;humidity
43047;DHT22;28672;49.358;8.780;2022-07-29T00:00:13;20.00;99.90
43047;DHT22;28672;49.358;8.780;2022-07-29T00:02:39;20.10;99.90
43047;DHT22;28672;49.358;8.780;2022-07-29T00:05:05;20.00;99.90
43047;DHT22;28672;49.358;8.780;2022-07-29T00:07:31;19.90;99.90
43047;DHT22;28672;49.358;8.780;2022-07-29T00:09:56;19.90;99.90
43047;DHT22;28672;49.358;8.780;2022-07-29T00:12:23;19.80;99.90
43047;DHT22;28672;49.358;8.780;2022-07-29T00:14:50;19.70;99.90
43047;DHT22;28672;49.358;8.780;2022-07-29T00:17:16;19.60;99.90
43047;DHT22;28672;49.358;8.780;2022-07-29T00:19:41;19.50;99.90
43047;DHT22;28672;49.358;8.780;2022-07-29T00:22:07;19.50;99.90
43047;DHT22;28672;49.358;8.780;2022-07-29T00:24:33;19.40;99.90
43047;DHT22;28672;49.358;8.780;2022-07-29T00:26:59;19.30;99.90
43047;DHT22;28672;49.358;8.780;2022-07-29T00:29:25;19.40;99.90
43047;DHT22;28672;49.358;8.780;2022-07-29T00:31:51;19.30;99.90
43047;DHT22;28672;49.358;8.780;2022-07-29T00:34:17;19.20;99.90
43047;DHT22;28672;49.358;8.780;2022-07-29T00:37:01;19.30;99.90
43047;DHT22;28672;49.358;8.780;2022-07-29T00:39:27;19.20;99.90
43047;DHT22;28672;49.358;8.780;2022-07-29T00:41:53;19.10;99.90
43047;DHT22;28672;49.358;8.780;2022-07-29T00:44:19;19.00;99.90
43047;DHT22;28672;49.358;8.780;2022-07-29T00:46:45;18.90;99.90
43047;DHT22;28672;49.358;8.780;2022-07-29T00:49:10;18.80;99.90
43047;DHT22;28672;49.358;8.780;2022-07-29T00:51:37;18.80;99.90
43047;DHT22;28672;49.358;8.780;2022-07-29T00:54:04;18.70;99.90
43047;DHT22;28672;49.358;8.780;2022-07-29T00:56:33;18.70;99.90
43047;DHT22;28672;49.358;8.780;2022-07-29T00:58:58;18.70;99.90
43047;DHT22;28672;49.358;8.780;2022-07-29T01:01:32;18.70;99.90
43047;DHT22;28672;49.358;8.780;2022-07-29T01:03:58;18.70;99.90
43047;DHT22;28672;49.358;8.780;2022-07-29T01:06:24;18.80;99.90
43047;DHT22;28672;49.358;8.780;2022-07-29T01:08:58;18.80;99.90
43047;DHT22;28672;49.358;8.780;2022-07-29T01:11:26;19.00;99.90
43047;DHT22;28672;49.358;8.780;2022-07-29T01:13:52;19.00;99.90
43047;DHT22;28672;49.358;8.780;2022-07-29T01:16:23;19.00;99.90
43047;DHT22;28672;49.358;8.780;2022-07-29T01:18:54;19.00;99.90
43047;DHT22;28672;49.358;8.780;2022-07-29T01:24:11;18.80;99.90
43047;DHT22;28672;49.358;8.780;2022-07-29T01:26:47;18.80;99.90
43047;DHT22;28672;49.358;8.780;2022-07-29T01:29:16;18.80;99.90
43047;DHT22;28672;49.358;8.780;2022-07-29T01:31:51;18.80;99.90
43047;DHT22;28672;49.358;8.780;2022-07-29T01:40:14;18.80;99.90
43047;DHT22;28672;49.358;8.780;2022-07-29T01:42:47;18.80;99.90
43047;DHT22;28672;49.358;8.780;2022-07-29T01:45:18;18.80;99.90
43047;DHT22;28672;49.358;8.780;2022-07-29T01:47:59;18.80;99.90
43047;DHT22;28672;49.358;8.780;2022-07-29T01:50:34;18.90;99.90
43047;DHT22;28672;49.358;8.780;2022-07-29T01:53:04;18.80;99.90
43047;DHT22;28672;49.358;8.780;2022-07-29T01:55:34;18.80;99.90
43047;DHT22;28672;49.358;8.780;2022-07-29T01:58:01;18.80;99.90
43047;DHT22;28672;49.358;8.780;2022-07-29T02:00:30;18.70;99.90
43047;DHT22;28672;49.358;8.780;2022-07-29T02:03:26;18.70;99.90
43047;DHT22;28672;49.358;8.780;2022-07-29T02:06:00;18.60;99.90
43047;DHT22;28672;49.358;8.780;2022-07-29T02:08:31;18.60;99.90
43047;DHT22;28672;49.358;8.780;2022-07-29T02:10:59;18.60;99.90
43047;DHT22;28672;49.358;8.780;2022-07-29T02:13:27;18.60;99.90
43047;DHT22;28672;49.358;8.780;2022-07-29T02:15:55;18.50;99.90
43047;DHT22;28672;49.358;8.780;2022-07-29T02:18:30;18.50;99.90
43047;DHT22;28672;49.358;8.780;2022-07-29T02:20:59;18.50;99.90
43047;DHT22;28672;49.358;8.780;2022-07-29T02:23:26;18.40;99.90
43047;DHT22;28672;49.358;8.780;2022-07-29T02:25:58;18.40;99.90
43047;DHT22;28672;49.358;8.780;2022-07-29T02:28:26;18.40;99.90
43047;DHT22;28672;49.358;8.780;2022-07-29T02:30:54;18.30;99.90
43047;DHT22;28672;49.358;8.780;2022-07-29T02:33:23;18.40;99.90
43047;DHT22;28672;49.358;8.780;2022-07-29T02:35:50;18.40;99.90
43047;DHT22;28672;49.358;8.780;2022-07-29T02:38:17;18.30;99.90
43047;DHT22;28672;49.358;8.780;2022-07-29T02:41:07;18.30;99.90
43047;DHT22;28672;49.358;8.780;2022-07-29T02:43:34;18.20;99.90
43047;DHT22;28672;49.358;8.780;2022-07-29T02:46:03;18.20;99.90
43047;DHT22;28672;49.358;8.780;2022-07-29T02:48:48;18.00;99.90
43047;DHT22;28672;49.358;8.780;2022-07-29T02:54:10;18.00;99.90
43047;DHT22;28672;49.358;8.780;2022-07-29T02:56:38;17.90;99.90
43047;DHT22;28672;49.358;8.780;2022-07-29T02:59:08;17.90;99.90
43047;DHT22;28672;49.358;8.780;2022-07-29T03:01:40;17.80;99.90
43047;DHT22;28672;49.358;8.780;2022-07-29T03:04:08;17.80;99.90
43047;DHT22;28672;49.358;8.780;2022-07-29T03:06:35;17.80;99.90
43047;DHT22;28672;49.358;8.780;2022-07-29T03:09:03;17.70;99.90
43047;DHT22;28672;49.358;8.780;2022-07-29T03:11:29;17.60;99.90
43047;DHT22;28672;49.358;8.780;2022-07-29T03:13:55;17.60;99.90
43047;DHT22;28672;49.358;8.780;2022-07-29T03:16:21;17.60;99.90
43047;DHT22;28672;49.358;8.780;2022-07-29T03:18:49;17.60;99.90
43047;DHT22;28672;49.358;8.780;2022-07-29T03:21:15;17.60;99.90
43047;DHT22;28672;49.358;8.780;2022-07-29T03:23:43;17.60;99.90
43047;DHT22;28672;49.358;8.780;2022-07-29T03:26:10;17.60;99.90
43047;DHT22;28672;49.358;8.780;2022-07-29T03:28:36;17.60;99.90
43047;DHT22;28672;49.358;8.780;2022-07-29T03:31:02;17.70;99.90
43047;DHT22;28672;49.358;8.780;2022-07-29T03:33:27;17.70;99.90
43047;DHT22;28672;49.358;8.780;2022-07-29T03:35:54;17.70;99.90
43047;DHT22;28672;49.358;8.780;2022-07-29T03:38:20;17.70;99.90
43047;DHT22;28672;49.358;8.780;2022-07-29T03:40:57;17.70;99.90
43047;DHT22;28672;49.358;8.780;2022-07-29T03:43:32;17.70;99.90
43047;DHT22;28672;49.358;8.780;2022-07-29T03:46:00;17.70;99.90
43047;DHT22;28672;49.358;8.780;2022-07-29T03:48:28;17.60;99.90
43047;DHT22;28672;49.358;8.780;2022-07-29T03:50:57;17.60;99.90
43047;DHT22;28672;49.358;8.780;2022-07-29T03:53:22;17.60;99.90
43047;DHT22;28672;49.358;8.780;2022-07-29T03:55:52;17.60;99.90
43047;DHT22;28672;49.358;8.780;2022-07-29T03:58:19;17.60;99.90
43047;DHT22;28672;49.358;8.780;2022-07-29T04:00:45;17.60;99.90
43047;DHT22;28672;49.358;8.780;2022-07-29T04:03:12;17.60;99.90
43047;DHT22;28672;49.358;8.780;2022-07-29T04:05:38;17.70;99.90
43047;DHT22;28672;49.358;8.780;2022-07-29T04:08:04;17.70;99.90
43047;DHT22;28672;49.358;8.780;2022-07-29T04:10:29;17.70;99.90
43047;DHT22;28672;49.358;8.780;2022-07-29T04:12:55;17.80;99.90
43047;DHT22;28672;49.358;8.780;2022-07-29T04:15:21;17.70;99.90
43047;DHT22;28672;49.358;8.780;2022-07-29T04:17:46;17.70;99.90
43047;DHT22;28672;49.358;8.780;2022-07-29T04:20:12;17.80;99.90
43047;DHT22;28672;49.358;8.780;2022-07-29T04:22:39;17.80;99.90
43047;DHT22;28672;49.358;8.780;2022-07-29T04:25:05;17.70;99.90
43047;DHT22;28672;49.358;8.780;2022-07-29T04:27:30;17.70;99.90
43047;DHT22;28672;49.358;8.780;2022-07-29T04:29:56;17.60;99.90
43047;DHT22;28672;49.358;8.780;2022-07-29T04:32:21;17.70;99.90
43047;DHT22;28672;49.358;8.780;2022-07-29T04:34:47;17.70;99.90
43047;DHT22;28672;49.358;8.780;2022-07-29T04:37:13;17.60;99.90
43047;DHT22;28672;49.358;8.780;2022-07-29T04:39:38;17.70;99.90
43047;DHT22;28672;49.358;8.780;2022-07-29T04:42:04;17.70;99.90
43047;DHT22;28672;49.358;8.780;2022-07-29T04:44:30;17.70;99.90
43047;DHT22;28672;49.358;8.780;2022-07-29T04:46:56;17.70;99.90
43047;DHT22;28672;49.358;8.780;2022-07-29T04:49:22;17.80;99.90
43047;DHT22;28672;49.358;8.780;2022-07-29T04:51:47;17.80;99.90
43047;DHT22;28672;49.358;8.780;2022-07-29T04:54:13;17.70;99.90
43047;DHT22;28672;49.358;8.780;2022-07-29T04:56:38;17.80;99.90
43047;DHT22;28672;49.358;8.780;2022-07-29T04:59:04;17.90;99.90
43047;DHT22;28672;49.358;8.780;2022-07-29T05:01:29;18.20;99.90
43047;DHT22;28672;49.358;8.780;2022-07-29T05:03:55;18.50;99.90
43047;DHT22;28672;49.358;8.780;2022-07-29T05:06:20;18.90;99.90
43047;DHT22;28672;49.358;8.780;2022-07-29T05:08:46;19.10;99.90
43047;DHT22;28672;49.358;8.780;2022-07-29T05:11:11;19.40;99.90
43047;DHT22;28672;49.358;8.780;2022-07-29T05:13:37;19.60;99.90
43047;DHT22;28672;49.358;8.780;2022-07-29T05:16:02;19.90;99.90
43047;DHT22;28672;49.358;8.780;2022-07-29T05:18:28;20.30;99.90
43047;DHT22;28672;49.358;8.780;2022-07-29T05:20:53;20.70;99.90
43047;DHT22;28672;49.358;8.780;2022-07-29T05:23:19;20.70;99.90
43047;DHT22;28672;49.358;8.780;2022-07-29T05:25:44;20.90;99.90
43047;DHT22;28672;49.358;8.780;2022-07-29T05:28:11;21.10;99.90
43047;DHT22;28672;49.358;8.780;2022-07-29T05:30:37;21.60;99.90
43047;DHT22;28672;49.358;8.780;2022-07-29T05:33:03;22.00;99.90
43047;DHT22;28672;49.358;8.780;2022-07-29T05:35:28;22.10;99.90
43047;DHT22;28672;49.358;8.780;2022-07-29T05:37:54;22.10;99.90
43047;DHT22;28672;49.358;8.780;2022-07-29T05:40:19;22.60;99.90
43047;DHT22;28672;49.358;8.780;2022-07-29T05:42:45;23.00;99.90
43047;DHT22;28672;49.358;8.780;2022-07-29T05:45:11;22.90;99.90
43047;DHT22;28672;49.358;8.780;2022-07-29T05:47:36;22.70;99.90
43047;DHT22;28672;49.358;8.780;2022-07-29T05:50:02;23.10;99.90
43047;DHT22;28672;49.358;8.780;2022-07-29T05:52:27;23.10;99.90
43047;DHT22;28672;49.358;8.780;2022-07-29T05:54:53;23.30;99.90
43047;DHT22;28672;49.358;8.780;2022-07-29T05:57:20;23.30;99.90
43047;DHT22;28672;49.358;8.780;2022-07-29T05:59:47;23.30;99.90
43047;DHT22;28672;49.358;8.780;2022-07-29T06:02:13;23.30;99.90
43047;DHT22;28672;49.358;8.780;2022-07-29T06:04:38;23.40;99.90
43047;DHT22;28672;49.358;8.780;2022-07-29T06:07:04;23.70;99.90
43047;DHT22;28672;49.358;8.780;2022-07-29T06:09:32;23.90;99.90
43047;DHT22;28672;49.358;8.780;2022-07-29T06:11:57;24.00;99.90
43047;DHT22;28672;49.358;8.780;2022-07-29T06:14:23;24.30;99.90
43047;DHT22;28672;49.358;8.780;2022-07-29T06:16:49;24.10;99.90
43047;DHT22;28672;49.358;8.780;2022-07-29T06:19:14;24.30;99.90
43047;DHT22;28672;49.358;8.780;2022-07-29T06:21:43;24.40;99.90
43047;DHT22;28672;49.358;8.780;2022-07-29T06:24:11;24.10;99.90
43047;DHT22;28672;49.358;8.780;2022-07-29T06:26:38;23.60;99.90
43047;DHT22;28672;49.358;8.780;2022-07-29T06:29:03;23.00;99.90
43047;DHT22;28672;49.358;8.780;2022-07-29T06:31:29;22.80;99.90
43047;DHT22;28672;49.358;8.780;2022-07-29T06:33:54;22.60;99.90
43047;DHT22;28672;49.358;8.780;2022-07-29T06:36:20;22.70;99.90
43047;DHT22;28672;49.358;8.780;2022-07-29T06:38:45;22.70;99.90
43047;DHT22;28672;49.358;8.780;2022-07-29T06:41:11;23.10;99.90
43047;DHT22;28672;49.358;8.780;2022-07-29T06:43:42;23.70;99.90
43047;DHT22;28672;49.358;8.780;2022-07-29T06:46:10;23.90;99.90
43047;DHT22;28672;49.358;8.780;2022-07-29T06:48:36;23.70;99.90
43047;DHT22;28672;49.358;8.780;2022-07-29T06:51:04;23.70;99.90
43047;DHT22;28672;49.358;8.780;2022-07-29T06:53:30;24.00;99.90
43047;DHT22;28672;49.358;8.780;2022-07-29T06:55:57;24.10;99.90
43047;DHT22;28672;49.358;8.780;2022-07-29T06:58:23;24.10;99.90
43047;DHT22;28672;49.358;8.780;2022-07-29T07:00:49;23.90;99.90
43047;DHT22;28672;49.358;8.780;2022-07-29T07:03:16;23.80;99.90
43047;DHT22;28672;49.358;8.780;2022-07-29T07:05:42;23.60;99.90
43047;DHT22;28672;49.358;8.780;2022-07-29T07:08:07;24.00;99.90
43047;DHT22;28672;49.358;8.780;2022-07-29T07:10:33;23.80;99.90
43047;DHT22;28672;49.358;8.780;2022-07-29T07:13:00;23.70;99.90
43047;DHT22;28672;49.358;8.780;2022-07-29T07:15:26;23.40;99.90
43047;DHT22;28672;49.358;8.780;2022-07-29T07:17:52;23.30;99.90
43047;DHT22;28672;49.358;8.780;2022-07-29T07:20:18;23.30;99.90
43047;DHT22;28672;49.358;8.780;2022-07-29T07:22:44;23.50;99.90
43047;DHT22;28672;49.358;8.780;2022-07-29T07:25:10;23.60;99.90
43047;DHT22;28672;49.358;8.780;2022-07-29T07:27:37;23.60;99.90
43047;DHT22;28672;49.358;8.780;2022-07-29T07:30:04;23.60;99.90
43047;DHT22;28672;49.358;8.780;2022-07-29T07:32:31;23.60;99.90
43047;DHT22;28672;49.358;8.780;2022-07-29T07:34:57;24.00;99.90
43047;DHT22;28672;49.358;8.780;2022-07-29T07:37:23;24.10;99.90
43047;DHT22;28672;49.358;8.780;2022-07-29T07:39:50;24.30;99.90
43047;DHT22;28672;49.358;8.780;2022-07-29T07:42:15;24.30;99.90
43047;DHT22;28672;49.358;8.780;2022-07-29T07:44:41;24.30;99.90
43047;DHT22;28672;49.358;8.780;2022-07-29T07:47:07;24.10;99.90
43047;DHT22;28672;49.358;8.780;2022-07-29T07:49:32;24.20;99.90
43047;DHT22;28672;49.358;8.780;2022-07-29T07:51:58;24.40;99.90
43047;DHT22;28672;49.358;8.780;2022-07-29T07:54:23;24.90;99.90
43047;DHT22;28672;49.358;8.780;2022-07-29T07:56:49;25.00;99.90
43047;DHT22;28672;49.358;8.780;2022-07-29T07:59:15;25.00;99.90
43047;DHT22;28672;49.358;8.780;2022-07-29T08:01:41;25.40;99.90
43047;DHT22;28672;49.358;8.780;2022-07-29T08:04:06;25.50;99.90
43047;DHT22;28672;49.358;8.780;2022-07-29T08:06:33;25.60;99.90
43047;DHT22;28672;49.358;8.780;2022-07-29T08:09:00;25.30;99.90
43047;DHT22;28672;49.358;8.780;2022-07-29T08:11:25;25.20;99.90
43047;DHT22;28672;49.358;8.780;2022-07-29T08:13:51;25.40;99.90
43047;DHT22;28672;49.358;8.780;2022-07-29T08:16:17;25.20;99.90
43047;DHT22;28672;49.358;8.780;2022-07-29T08:18:44;25.40;99.90
43047;DHT22;28672;49.358;8.780;2022-07-29T08:21:10;25.40;99.90
43047;DHT22;28672;49.358;8.780;2022-07-29T08:23:36;25.70;99.90
43047;DHT22;28672;49.358;8.780;2022-07-29T08:26:08;25.80;99.90
43047;DHT22;28672;49.358;8.780;2022-07-29T08:28:39;26.10;99.90
43047;DHT22;28672;49.358;8.780;2022-07-29T08:31:05;26.40;99.90
43047;DHT22;28672;49.358;8.780;2022-07-29T08:33:32;26.70;99.90
43047;DHT22;28672;49.358;8.780;2022-07-29T08:35:57;27.10;99.90
43047;DHT22;28672;49.358;8.780;2022-07-29T08:38:23;27.10;99.90
43047;DHT22;28672;49.358;8.780;2022-07-29T08:40:49;27.30;99.90
43047;DHT22;28672;49.358;8.780;2022-07-29T08:43:15;27.60;99.90
43047;DHT22;28672;49.358;8.780;2022-07-29T08:45:49;27.40;99.90
43047;DHT22;28672;49.358;8.780;2022-07-29T08:48:17;26.90;99.90
43047;DHT22;28672;49.358;8.780;2022-07-29T08:50:44;26.50;99.90
43047;DHT22;28672;49.358;8.780;2022-07-29T08:53:11;26.20;99.90
43047;DHT22;28672;49.358;8.780;2022-07-29T08:55:43;26.30;99.90
43047;DHT22;28672;49.358;8.780;2022-07-29T08:58:09;26.30;99.90
43047;DHT22;28672;49.358;8.780;2022-07-29T09:00:37;26.20;99.90
43047;DHT22;28672;49.358;8.780;2022-07-29T09:03:06;25.70;99.90
43047;DHT22;28672;49.358;8.780;2022-07-29T09:05:33;25.60;99.90
43047;DHT22;28672;49.358;8.780;2022-07-29T09:07:59;25.50;99.90
43047;DHT22;28672;49.358;8.780;2022-07-29T09:10:25;25.50;99.90
43047;DHT22;28672;49.358;8.780;2022-07-29T09:12:51;25.90;99.90
43047;DHT22;28672;49.358;8.780;2022-07-29T09:15:17;26.30;99.90
43047;DHT22;28672;49.358;8.780;2022-07-29T09:17:48;26.90;99.90
43047;DHT22;28672;49.358;8.780;2022-07-29T09:20:18;27.50;99.90
43047;DHT22;28672;49.358;8.780;2022-07-29T09:22:44;27.80;99.90
43047;DHT22;28672;49.358;8.780;2022-07-29T09:25:14;27.80;99.90
43047;DHT22;28672;49.358;8.780;2022-07-29T09:27:40;28.00;99.90
43047;DHT22;28672;49.358;8.780;2022-07-29T09:30:10;27.70;99.90
43047;DHT22;28672;49.358;8.780;2022-07-29T09:32:58;27.70;99.90
43047;DHT22;28672;49.358;8.780;2022-07-29T09:35:27;27.60;99.90
43047;DHT22;28672;49.358;8.780;2022-07-29T09:37:53;27.60;99.90
43047;DHT22;28672;49.358;8.780;2022-07-29T09:40:24;27.30;99.90
43047;DHT22;28672;49.358;8.780;2022-07-29T09:42:50;27.40;99.90
43047;DHT22;28672;49.358;8.780;2022-07-29T09:45:33;27.50;99.90
43047;DHT22;28672;49.358;8.780;2022-07-29T09:48:12;27.50;99.90
43047;DHT22;28672;49.358;8.780;2022-07-29T09:50:40;27.20;99.90
43047;DHT22;28672;49.358;8.780;2022-07-29T09:53:06;27.60;99.90
43047;DHT22;28672;49.358;8.780;2022-07-29T09:55:32;28.00;99.90
43047;DHT22;28672;49.358;8.780;2022-07-29T09:58:20;28.20;99.90
43047;DHT22;28672;49.358;8.780;2022-07-29T10:00:47;28.10;99.90
43047;DHT22;28672;49.358;8.780;2022-07-29T10:03:14;28.50;99.90
43047;DHT22;28672;49.358;8.780;2022-07-29T10:05:41;28.70;99.90
43047;DHT22;28672;49.358;8.780;2022-07-29T10:08:07;28.30;99.90
43047;DHT22;28672;49.358;8.780;2022-07-29T10:10:37;28.60;99.90
43047;DHT22;28672;49.358;8.780;2022-07-29T10:13:05;28.80;99.90
43047;DHT22;28672;49.358;8.780;2022-07-29T10:15:33;29.10;99.90
43047;DHT22;28672;49.358;8.780;2022-07-29T10:18:02;29.10;99.90
43047;DHT22;28672;49.358;8.780;2022-07-29T10:20:28;29.10;99.90
43047;DHT22;28672;49.358;8.780;2022-07-29T10:22:54;29.00;99.90
43047;DHT22;28672;49.358;8.780;2022-07-29T10:25:21;29.40;99.90
43047;DHT22;28672;49.358;8.780;2022-07-29T10:27:48;29.70;99.90
43047;DHT22;28672;49.358;8.780;2022-07-29T10:30:16;29.50;99.90
43047;DHT22;28672;49.358;8.780;2022-07-29T10:33:01;29.10;99.90
43047;DHT22;28672;49.358;8.780;2022-07-29T10:43:46;29.30;99.90
43047;DHT22;28672;49.358;8.780;2022-07-29T10:46:13;29.60;99.90
43047;DHT22;28672;49.358;8.780;2022-07-29T10:49:04;29.60;99.90
43047;DHT22;28672;49.358;8.780;2022-07-29T10:54:16;30.20;99.90
43047;DHT22;28672;49.358;8.780;2022-07-29T10:56:42;30.10;99.90
43047;DHT22;28672;49.358;8.780;2022-07-29T11:01:47;30.10;99.90
43047;DHT22;28672;49.358;8.780;2022-07-29T11:04:13;30.00;99.90
43047;DHT22;28672;49.358;8.780;2022-07-29T11:09:29;29.80;99.90
43047;DHT22;28672;49.358;8.780;2022-07-29T11:11:56;30.20;99.90
43047;DHT22;28672;49.358;8.780;2022-07-29T11:14:59;30.40;99.90
43047;DHT22;28672;49.358;8.780;2022-07-29T11:17:27;30.40;99.90
43047;DHT22;28672;49.358;8.780;2022-07-29T11:22:56;30.00;99.90
43047;DHT22;28672;49.358;8.780;2022-07-29T11:25:22;30.40;99.90
43047;DHT22;28672;49.358;8.780;2022-07-29T11:27:49;30.30;99.90
43047;DHT22;28672;49.358;8.780;2022-07-29T11:30:15;30.60;99.90
43047;DHT22;28672;49.358;8.780;2022-07-29T11:32:42;30.70;99.90
43047;DHT22;28672;49.358;8.780;2022-07-29T11:35:19;30.70;99.90
43047;DHT22;28672;49.358;8.780;2022-07-29T11:38:23;30.60;99.90
43047;DHT22;28672;49.358;8.780;2022-07-29T11:43:47;30.30;99.90
43047;DHT22;28672;49.358;8.780;2022-07-29T11:46:13;30.20;99.90
43047;DHT22;28672;49.358;8.780;2022-07-29T11:48:42;30.50;99.90
43047;DHT22;28672;49.358;8.780;2022-07-29T11:51:11;30.30;99.90
43047;DHT22;28672;49.358;8.780;2022-07-29T11:53:39;30.40;99.90
43047;DHT22;28672;49.358;8.780;2022-07-29T11:56:08;30.70;99.90
43047;DHT22;28672;49.358;8.780;2022-07-29T11:58:34;30.80;99.90
43047;DHT22;28672;49.358;8.780;2022-07-29T12:01:00;30.70;99.90
43047;DHT22;28672;49.358;8.780;2022-07-29T12:03:28;30.60;99.90
43047;DHT22;28672;49.358;8.780;2022-07-29T12:05:54;30.70;99.90
43047;DHT22;28672;49.358;8.780;2022-07-29T12:08:21;30.90;99.90
43047;DHT22;28672;49.358;8.780;2022-07-29T12:10:49;30.50;99.90
43047;DHT22;28672;49.358;8.780;2022-07-29T12:13:17;30.50;99.90
43047;DHT22;28672;49.358;8.780;2022-07-29T12:15:55;30.70;99.90
43047;DHT22;28672;49.358;8.780;2022-07-29T12:18:22;30.80;99.90
43047;DHT22;28672;49.358;8.780;2022-07-29T12:20:48;30.60;99.90
43047;DHT22;28672;49.358;8.780;2022-07-29T12:23:15;31.00;99.90
43047;DHT22;28672;49.358;8.780;2022-07-29T12:25:42;30.90;99.90
43047;DHT22;28672;49.358;8.780;2022-07-29T12:28:13;31.10;99.90
43047;DHT22;28672;49.358;8.780;2022-07-29T12:30:45;31.50;99.90
43047;DHT22;28672;49.358;8.780;2022-07-29T12:35:43;31.30;99.90
43047;DHT22;28672;49.358;8.780;2022-07-29T12:38:10;31.00;99.90
43047;DHT22;28672;49.358;8.780;2022-07-29T12:40:37;30.70;99.90
43047;DHT22;28672;49.358;8.780;2022-07-29T12:43:13;30.70;99.90
43047;DHT22;28672;49.358;8.780;2022-07-29T12:45:41;30.70;99.90
43047;DHT22;28672;49.358;8.780;2022-07-29T12:48:08;30.70;99.90
43047;DHT22;28672;49.358;8.780;2022-07-29T12:50:51;30.70;99.90
43047;DHT22;28672;49.358;8.780;2022-07-29T12:53:18;30.70;99.90
43047;DHT22;28672;49.358;8.780;2022-07-29T12:55:46;30.60;99.90
43047;DHT22;28672;49.358;8.780;2022-07-29T12:58:40;30.70;99.90
43047;DHT22;28672;49.358;8.780;2022-07-29T13:01:10;31.00;99.90
43047;DHT22;28672;49.358;8.780;2022-07-29T13:03:50;31.10;99.90
43047;DHT22;28672;49.358;8.780;2022-07-29T13:11:41;30.60;99.90
43047;DHT22;28672;49.358;8.780;2022-07-29T13:14:08;30.40;99.80
43047;DHT22;28672;49.358;8.780;2022-07-29T13:16:35;30.60;99.90
43047;DHT22;28672;49.358;8.780;2022-07-29T13:19:11;30.40;99.80
43047;DHT22;28672;49.358;8.780;2022-07-29T13:21:38;30.40;99.70
43047;DHT22;28672;49.358;8.780;2022-07-29T13:24:07;30.30;99.70
43047;DHT22;28672;49.358;8.780;2022-07-29T13:26:34;30.10;99.90
43047;DHT22;28672;49.358;8.780;2022-07-29T13:28:59;30.20;99.90
43047;DHT22;28672;49.358;8.780;2022-07-29T13:31:25;30.00;99.90
43047;DHT22;28672;49.358;8.780;2022-07-29T13:33:51;30.00;99.90
43047;DHT22;28672;49.358;8.780;2022-07-29T13:36:16;29.80;99.90
43047;DHT22;28672;49.358;8.780;2022-07-29T13:38:42;29.60;99.90
43047;DHT22;28672;49.358;8.780;2022-07-29T13:41:07;29.60;99.90
43047;DHT22;28672;49.358;8.780;2022-07-29T13:43:33;29.50;99.90
43047;DHT22;28672;49.358;8.780;2022-07-29T13:45:58;29.50;99.90
43047;DHT22;28672;49.358;8.780;2022-07-29T13:48:24;29.40;99.90
43047;DHT22;28672;49.358;8.780;2022-07-29T13:50:49;29.60;99.90
43047;DHT22;28672;49.358;8.780;2022-07-29T13:53:15;29.50;99.90
43047;DHT22;28672;49.358;8.780;2022-07-29T13:55:40;29.40;99.90
43047;DHT22;28672;49.358;8.780;2022-07-29T13:58:06;29.30;99.90
43047;DHT22;28672;49.358;8.780;2022-07-29T14:00:31;29.40;99.90
43047;DHT22;28672;49.358;8.780;2022-07-29T14:02:57;29.40;99.90
43047;DHT22;28672;49.358;8.780;2022-07-29T14:05:22;29.40;99.90
43047;DHT22;28672;49.358;8.780;2022-07-29T14:07:48;29.50;99.90
43047;DHT22;28672;49.358;8.780;2022-07-29T14:10:13;29.50;99.90
43047;DHT22;28672;49.358;8.780;2022-07-29T14:12:39;29.60;99.90
43047;DHT22;28672;49.358;8.780;2022-07-29T14:15:07;29.60;99.90
43047;DHT22;28672;49.358;8.780;2022-07-29T14:17:33;29.70;99.90
43047;DHT22;28672;49.358;8.780;2022-07-29T14:19:59;29.90;99.90
43047;DHT22;28672;49.358;8.780;2022-07-29T14:22:25;30.00;99.60
43047;DHT22;28672;49.358;8.780;2022-07-29T14:24:50;30.00;99.90
43047;DHT22;28672;49.358;8.780;2022-07-29T14:27:16;30.10;99.80
43047;DHT22;28672;49.358;8.780;2022-07-29T14:29:41;30.10;99.40
43047;DHT22;28672;49.358;8.780;2022-07-29T14:32:08;30.10;99.40
43047;DHT22;28672;49.358;8.780;2022-07-29T14:34:36;30.20;99.10
43047;DHT22;28672;49.358;8.780;2022-07-29T14:37:02;30.30;99.20
43047;DHT22;28672;49.358;8.780;2022-07-29T14:39:30;30.40;99.30
43047;DHT22;28672;49.358;8.780;2022-07-29T14:41:56;30.20;99.00
43047;DHT22;28672;49.358;8.780;2022-07-29T14:44:21;30.20;99.00
43047;DHT22;28672;49.358;8.780;2022-07-29T14:46:47;30.20;99.20
43047;DHT22;28672;49.358;8.780;2022-07-29T14:49:12;30.40;98.40
43047;DHT22;28672;49.358;8.780;2022-07-29T14:51:38;30.20;98.10
43047;DHT22;28672;49.358;8.780;2022-07-29T14:54:03;30.00;97.70
43047;DHT22;28672;49.358;8.780;2022-07-29T14:56:29;30.00;98.20
43047;DHT22;28672;49.358;8.780;2022-07-29T14:58:56;29.80;98.70
43047;DHT22;28672;49.358;8.780;2022-07-29T15:01:21;30.00;98.30
43047;DHT22;28672;49.358;8.780;2022-07-29T15:03:47;29.80;97.80
43047;DHT22;28672;49.358;8.780;2022-07-29T15:06:12;29.60;98.10
43047;DHT22;28672;49.358;8.780;2022-07-29T15:08:38;29.70;98.40
43047;DHT22;28672;49.358;8.780;2022-07-29T15:11:03;29.70;98.20
43047;DHT22;28672;49.358;8.780;2022-07-29T15:13:29;29.70;98.00
43047;DHT22;28672;49.358;8.780;2022-07-29T15:15:54;29.70;98.20
43047;DHT22;28672;49.358;8.780;2022-07-29T15:18:20;29.80;98.10
43047;DHT22;28672;49.358;8.780;2022-07-29T15:20:45;29.80;98.10
43047;DHT22;28672;49.358;8.780;2022-07-29T15:23:12;30.00;97.80
43047;DHT22;28672;49.358;8.780;2022-07-29T15:25:38;30.00;98.20
43047;DHT22;28672;49.358;8.780;2022-07-29T15:28:04;30.00;97.70
43047;DHT22;28672;49.358;8.780;2022-07-29T15:30:33;30.00;97.10
43047;DHT22;28672;49.358;8.780;2022-07-29T15:32:59;30.00;97.00
43047;DHT22;28672;49.358;8.780;2022-07-29T15:35:24;30.10;97.30
43047;DHT22;28672;49.358;8.780;2022-07-29T15:37:50;30.20;96.70
43047;DHT22;28672;49.358;8.780;2022-07-29T15:40:16;30.10;96.70
43047;DHT22;28672;49.358;8.780;2022-07-29T15:42:41;30.10;96.40
43047;DHT22;28672;49.358;8.780;2022-07-29T15:45:07;30.00;96.40
43047;DHT22;28672;49.358;8.780;2022-07-29T15:47:35;30.00;97.10
43047;DHT22;28672;49.358;8.780;2022-07-29T15:50:00;30.00;96.20
43047;DHT22;28672;49.358;8.780;2022-07-29T15:52:26;29.90;96.10
43047;DHT22;28672;49.358;8.780;2022-07-29T15:54:53;29.80;95.90
43047;DHT22;28672;49.358;8.780;2022-07-29T15:57:19;29.50;96.20
43047;DHT22;28672;49.358;8.780;2022-07-29T15:59:44;29.50;96.20
43047;DHT22;28672;49.358;8.780;2022-07-29T16:02:10;29.70;95.40
43047;DHT22;28672;49.358;8.780;2022-07-29T16:04:36;29.70;95.00
43047;DHT22;28672;49.358;8.780;2022-07-29T16:07:01;29.80;94.70
43047;DHT22;28672;49.358;8.780;2022-07-29T16:09:28;29.50;94.90
43047;DHT22;28672;49.358;8.780;2022-07-29T16:11:53;29.60;95.20
43047;DHT22;28672;49.358;8.780;2022-07-29T16:14:20;29.70;95.50